sensor_id;sensor_type;location;lat;lon;timestamp;P1;durP1;ratioP1;P2;durP2;ratioP2
9665;SDS011;4871;52.004;5.924;2023-09-18T00:00:00;7.40;;;6.70;;
9665;SDS011;4871;52.004;5.924;2023-09-18T00:01:00;7.40;;;6.70;;
9665;SDS011;4871;52.004;5.924;2023-09-18T00:02:00;7.40;;;6.70;;
9665;SDS011;4871;52.004;5.924;2023-09-18T00:03:03;7.40;;;6.70;;
9665;SDS011;4871;52.004;5.924;2023-09-18T00:04:00;7.40;;;6.70;;
9665;SDS011;4871;52.004;5.924;2023-09-18T00:05:00;7.40;;;6.70;;
9665;SDS011;4871;52.004;5.924;2023-09-18T00:06:00;7.40;;;6.70;;
9665;SDS011;4871;52.004;5.924;2023-09-18T00:07:00;7.40;;;6.70;;
9665;SDS011;4871;52.004;5.924;2023-09-18T00:08:02;7.40;;;6.70;;
9665;SDS011;4871;52.004;5.924;2023-09-18T00:09:00;7.40;;;6.70;;
9665;SDS011;4871;52.004;5.924;2023-09-18T00:10:00;7.40;;;6.70;;
9665;SDS011;4871;52.004;5.924;2023-09-18T00:11:00;7.40;;;6.70;;
9665;SDS011;4871;52.004;5.924;2023-09-18T00:12:00;7.40;;;6.70;;
9665;SDS011;4871;52.004;5.924;2023-09-18T00:13:01;7.40;;;6.70;;
9665;SDS011;4871;52.004;5.924;2023-09-18T00:14:00;7.40;;;6.70;;
9665;SDS011;4871;52.004;5.924;2023-09-18T00:15:01;7.40;;;6.70;;
9665;SDS011;4871;52.004;5.924;2023-09-18T00:16:01;7.40;;;6.70;;
9665;SDS011;4871;52.004;5.924;2023-09-18T00:17:00;9.80;;;7.80;;
9665;SDS011;4871;52.004;5.924;2023-09-18T00:18:01;9.80;;;7.80;;
9665;SDS011;4871;52.004;5.924;2023-09-18T00:19:01;9.80;;;7.80;;
9665;SDS011;4871;52.004;5.924;2023-09-18T00:20:00;9.80;;;7.80;;
9665;SDS011;4871;52.004;5.924;2023-09-18T00:21:01;9.80;;;7.80;;
9665;SDS011;4871;52.004;5.924;2023-09-18T00:22:00;9.80;;;7.80;;
9665;SDS011;4871;52.004;5.924;2023-09-18T00:23:00;9.80;;;7.80;;
9665;SDS011;4871;52.004;5.924;2023-09-18T00:24:00;9.80;;;7.80;;
9665;SDS011;4871;52.004;5.924;2023-09-18T00:25:01;9.80;;;7.80;;
9665;SDS011;4871;52.004;5.924;2023-09-18T00:26:00;9.80;;;7.80;;
9665;SDS011;4871;52.004;5.924;2023-09-18T00:27:00;9.80;;;7.80;;
9665;SDS011;4871;52.004;5.924;2023-09-18T00:28:00;9.80;;;7.80;;
9665;SDS011;4871;52.004;5.924;2023-09-18T00:29:00;9.80;;;7.80;;
9665;SDS011;4871;52.004;5.924;2023-09-18T00:30:00;9.80;;;7.80;;
9665;SDS011;4871;52.004;5.924;2023-09-18T00:31:00;9.80;;;7.80;;
9665;SDS011;4871;52.004;5.924;2023-09-18T00:32:00;9.80;;;7.80;;
9665;SDS011;4871;52.004;5.924;2023-09-18T00:33:00;9.80;;;7.80;;
9665;SDS011;4871;52.004;5.924;2023-09-18T00:34:00;9.80;;;7.80;;
9665;SDS011;4871;52.004;5.924;2023-09-18T00:35:00;9.80;;;7.80;;
9665;SDS011;4871;52.004;5.924;2023-09-18T00:36:00;9.80;;;7.80;;
9665;SDS011;4871;52.004;5.924;2023-09-18T00:37:00;9.80;;;7.80;;
9665;SDS011;4871;52.004;5.924;2023-09-18T00:38:03;9.80;;;7.80;;
9665;SDS011;4871;52.004;5.924;2023-09-18T00:39:00;9.80;;;7.80;;
9665;SDS011;4871;52.004;5.924;2023-09-18T00:40:00;9.80;;;7.80;;
9665;SDS011;4871;52.004;5.924;2023-09-18T00:41:00;9.80;;;7.80;;
9665;SDS011;4871;52.004;5.924;2023-09-18T00:42:00;9.80;;;7.80;;
9665;SDS011;4871;52.004;5.924;2023-09-18T00:43:00;9.80;;;7.80;;
9665;SDS011;4871;52.004;5.924;2023-09-18T00:44:00;9.80;;;7.80;;
9665;SDS011;4871;52.004;5.924;2023-09-18T00:45:00;9.80;;;7.80;;
9665;SDS011;4871;52.004;5.924;2023-09-18T00:46:00;9.80;;;7.80;;
9665;SDS011;4871;52.004;5.924;2023-09-18T00:47:00;8.20;;;7.30;;
9665;SDS011;4871;52.004;5.924;2023-09-18T00:48:00;8.20;;;7.30;;
9665;SDS011;4871;52.004;5.924;2023-09-18T00:49:00;8.20;;;7.30;;
9665;SDS011;4871;52.004;5.924;2023-09-18T00:50:00;8.20;;;7.30;;
9665;SDS011;4871;52.004;5.924;2023-09-18T00:51:00;8.20;;;7.30;;
9665;SDS011;4871;52.004;5.924;2023-09-18T00:52:00;8.20;;;7.30;;
9665;SDS011;4871;52.004;5.924;2023-09-18T00:53:00;8.20;;;7.30;;
9665;SDS011;4871;52.004;5.924;2023-09-18T00:54:00;8.20;;;7.30;;
9665;SDS011;4871;52.004;5.924;2023-09-18T00:55:00;8.20;;;7.30;;
9665;SDS011;4871;52.004;5.924;2023-09-18T00:56:00;8.20;;;7.30;;
9665;SDS011;4871;52.004;5.924;2023-09-18T00:57:00;8.20;;;7.30;;
9665;SDS011;4871;52.004;5.924;2023-09-18T00:58:00;8.20;;;7.30;;
9665;SDS011;4871;52.004;5.924;2023-09-18T00:59:02;8.20;;;7.30;;
9665;SDS011;4871;52.004;5.924;2023-09-18T01:00:01;8.20;;;7.30;;
9665;SDS011;4871;52.004;5.924;2023-09-18T01:01:00;8.20;;;7.30;;
9665;SDS011;4871;52.004;5.924;2023-09-18T01:02:00;8.20;;;7.30;;
9665;SDS011;4871;52.004;5.924;2023-09-18T01:03:01;8.20;;;7.30;;
9665;SDS011;4871;52.004;5.924;2023-09-18T01:04:01;8.20;;;7.30;;
9665;SDS011;4871;52.004;5.924;2023-09-18T01:05:01;8.20;;;7.30;;
9665;SDS011;4871;52.004;5.924;2023-09-18T01:06:00;8.20;;;7.30;;
9665;SDS011;4871;52.004;5.924;2023-09-18T01:07:03;8.20;;;7.30;;
9665;SDS011;4871;52.004;5.924;2023-09-18T01:08:00;8.20;;;7.30;;
9665;SDS011;4871;52.004;5.924;2023-09-18T01:09:00;8.20;;;7.30;;
9665;SDS011;4871;52.004;5.924;2023-09-18T01:10:00;8.20;;;7.30;;
9665;SDS011;4871;52.004;5.924;2023-09-18T01:11:03;8.20;;;7.30;;
9665;SDS011;4871;52.004;5.924;2023-09-18T01:12:01;8.20;;;7.30;;
9665;SDS011;4871;52.004;5.924;2023-09-18T01:13:02;8.20;;;7.30;;
9665;SDS011;4871;52.004;5.924;2023-09-18T01:14:03;8.20;;;7.30;;
9665;SDS011;4871;52.004;5.924;2023-09-18T01:15:02;8.20;;;7.30;;
9665;SDS011;4871;52.004;5.924;2023-09-18T01:16:02;8.20;;;7.30;;
9665;SDS011;4871;52.004;5.924;2023-09-18T01:17:03;10.90;;;9.30;;
9665;SDS011;4871;52.004;5.924;2023-09-18T01:18:00;10.90;;;9.30;;
9665;SDS011;4871;52.004;5.924;2023-09-18T01:19:03;10.90;;;9.30;;
9665;SDS011;4871;52.004;5.924;2023-09-18T01:20:00;10.90;;;9.30;;
9665;SDS011;4871;52.004;5.924;2023-09-18T01:21:00;10.90;;;9.30;;
9665;SDS011;4871;52.004;5.924;2023-09-18T01:22:00;10.90;;;9.30;;
9665;SDS011;4871;52.004;5.924;2023-09-18T01:23:00;10.90;;;9.30;;
9665;SDS011;4871;52.004;5.924;2023-09-18T01:24:00;10.90;;;9.30;;
9665;SDS011;4871;52.004;5.924;2023-09-18T01:25:00;10.90;;;9.30;;
9665;SDS011;4871;52.004;5.924;2023-09-18T01:26:00;10.90;;;9.30;;
9665;SDS011;4871;52.004;5.924;2023-09-18T01:27:00;10.90;;;9.30;;
9665;SDS011;4871;52.004;5.924;2023-09-18T01:28:00;10.90;;;9.30;;
9665;SDS011;4871;52.004;5.924;2023-09-18T01:29:00;10.90;;;9.30;;
9665;SDS011;4871;52.004;5.924;2023-09-18T01:30:00;10.90;;;9.30;;
9665;SDS011;4871;52.004;5.924;2023-09-18T01:31:00;10.90;;;9.30;;
9665;SDS011;4871;52.004;5.924;2023-09-18T01:32:00;10.90;;;9.30;;
9665;SDS011;4871;52.004;5.924;2023-09-18T01:33:00;10.90;;;9.30;;
9665;SDS011;4871;52.004;5.924;2023-09-18T01:34:01;10.90;;;9.30;;
9665;SDS011;4871;52.004;5.924;2023-09-18T01:35:01;10.90;;;9.30;;
9665;SDS011;4871;52.004;5.924;2023-09-18T01:36:00;10.90;;;9.30;;
9665;SDS011;4871;52.004;5.924;2023-09-18T01:37:00;10.90;;;9.30;;
9665;SDS011;4871;52.004;5.924;2023-09-18T01:38:00;10.90;;;9.30;;
9665;SDS011;4871;52.004;5.924;2023-09-18T01:39:00;10.90;;;9.30;;
9665;SDS011;4871;52.004;5.924;2023-09-18T01:40:00;10.90;;;9.30;;
9665;SDS011;4871;52.004;5.924;2023-09-18T01:41:00;10.90;;;9.30;;
9665;SDS011;4871;52.004;5.924;2023-09-18T01:42:02;10.90;;;9.30;;
9665;SDS011;4871;52.004;5.924;2023-09-18T01:43:00;10.90;;;9.30;;
9665;SDS011;4871;52.004;5.924;2023-09-18T01:44:00;10.90;;;9.30;;
9665;SDS011;4871;52.004;5.924;2023-09-18T01:45:00;10.90;;;9.30;;
9665;SDS011;4871;52.004;5.924;2023-09-18T01:46:00;10.90;;;9.30;;
9665;SDS011;4871;52.004;5.924;2023-09-18T01:47:01;11.00;;;9.90;;
9665;SDS011;4871;52.004;5.924;2023-09-18T01:48:00;11.00;;;9.90;;
9665;SDS011;4871;52.004;5.924;2023-09-18T01:49:00;11.00;;;9.90;;
9665;SDS011;4871;52.004;5.924;2023-09-18T01:50:02;11.00;;;9.90;;
9665;SDS011;4871;52.004;5.924;2023-09-18T01:51:00;11.00;;;9.90;;
9665;SDS011;4871;52.004;5.924;2023-09-18T01:52:00;11.00;;;9.90;;
9665;SDS011;4871;52.004;5.924;2023-09-18T01:53:00;11.00;;;9.90;;
9665;SDS011;4871;52.004;5.924;2023-09-18T01:54:00;11.00;;;9.90;;
9665;SDS011;4871;52.004;5.924;2023-09-18T01:55:00;11.00;;;9.90;;
9665;SDS011;4871;52.004;5.924;2023-09-18T01:56:01;11.00;;;9.90;;
9665;SDS011;4871;52.004;5.924;2023-09-18T01:57:00;11.00;;;9.90;;
9665;SDS011;4871;52.004;5.924;2023-09-18T01:58:00;11.00;;;9.90;;
9665;SDS011;4871;52.004;5.924;2023-09-18T01:59:00;11.00;;;9.90;;
9665;SDS011;4871;52.004;5.924;2023-09-18T02:00:00;11.00;;;9.90;;
9665;SDS011;4871;52.004;5.924;2023-09-18T02:01:00;11.00;;;9.90;;
9665;SDS011;4871;52.004;5.924;2023-09-18T02:02:04;11.00;;;9.90;;
9665;SDS011;4871;52.004;5.924;2023-09-18T02:03:00;11.00;;;9.90;;
9665;SDS011;4871;52.004;5.924;2023-09-18T02:04:00;11.00;;;9.90;;
9665;SDS011;4871;52.004;5.924;2023-09-18T02:05:00;11.00;;;9.90;;
9665;SDS011;4871;52.004;5.924;2023-09-18T02:06:00;11.00;;;9.90;;
9665;SDS011;4871;52.004;5.924;2023-09-18T02:07:00;11.00;;;9.90;;
9665;SDS011;4871;52.004;5.924;2023-09-18T02:08:00;11.00;;;9.90;;
9665;SDS011;4871;52.004;5.924;2023-09-18T02:09:00;11.00;;;9.90;;
9665;SDS011;4871;52.004;5.924;2023-09-18T02:10:00;11.00;;;9.90;;
9665;SDS011;4871;52.004;5.924;2023-09-18T02:11:00;11.00;;;9.90;;
9665;SDS011;4871;52.004;5.924;2023-09-18T02:12:00;11.00;;;9.90;;
9665;SDS011;4871;52.004;5.924;2023-09-18T02:13:01;11.00;;;9.90;;
9665;SDS011;4871;52.004;5.924;2023-09-18T02:14:05;11.00;;;9.90;;
9665;SDS011;4871;52.004;5.924;2023-09-18T02:15:04;11.00;;;9.90;;
9665;SDS011;4871;52.004;5.924;2023-09-18T02:16:00;11.00;;;9.90;;
9665;SDS011;4871;52.004;5.924;2023-09-18T02:17:00;12.30;;;10.90;;
9665;SDS011;4871;52.004;5.924;2023-09-18T02:18:00;12.30;;;10.90;;
9665;SDS011;4871;52.004;5.924;2023-09-18T02:19:00;12.30;;;10.90;;
9665;SDS011;4871;52.004;5.924;2023-09-18T02:20:05;12.30;;;10.90;;
9665;SDS011;4871;52.004;5.924;2023-09-18T02:21:00;12.30;;;10.90;;
9665;SDS011;4871;52.004;5.924;2023-09-18T02:22:00;12.30;;;10.90;;
9665;SDS011;4871;52.004;5.924;2023-09-18T02:23:00;12.30;;;10.90;;
9665;SDS011;4871;52.004;5.924;2023-09-18T02:24:01;12.30;;;10.90;;
9665;SDS011;4871;52.004;5.924;2023-09-18T02:25:00;12.30;;;10.90;;
9665;SDS011;4871;52.004;5.924;2023-09-18T02:26:00;12.30;;;10.90;;
9665;SDS011;4871;52.004;5.924;2023-09-18T02:27:00;12.30;;;10.90;;
9665;SDS011;4871;52.004;5.924;2023-09-18T02:28:00;12.30;;;10.90;;
9665;SDS011;4871;52.004;5.924;2023-09-18T02:29:01;12.30;;;10.90;;
9665;SDS011;4871;52.004;5.924;2023-09-18T02:30:00;12.30;;;10.90;;
9665;SDS011;4871;52.004;5.924;2023-09-18T02:31:00;12.30;;;10.90;;
9665;SDS011;4871;52.004;5.924;2023-09-18T02:32:00;12.30;;;10.90;;
9665;SDS011;4871;52.004;5.924;2023-09-18T02:33:03;12.30;;;10.90;;
9665;SDS011;4871;52.004;5.924;2023-09-18T02:34:00;12.30;;;10.90;;
9665;SDS011;4871;52.004;5.924;2023-09-18T02:35:00;12.30;;;10.90;;
9665;SDS011;4871;52.004;5.924;2023-09-18T02:36:00;12.30;;;10.90;;
9665;SDS011;4871;52.004;5.924;2023-09-18T02:37:00;12.30;;;10.90;;
9665;SDS011;4871;52.004;5.924;2023-09-18T02:38:03;12.30;;;10.90;;
9665;SDS011;4871;52.004;5.924;2023-09-18T02:39:00;12.30;;;10.90;;
9665;SDS011;4871;52.004;5.924;2023-09-18T02:40:00;12.30;;;10.90;;
9665;SDS011;4871;52.004;5.924;2023-09-18T02:41:00;12.30;;;10.90;;
9665;SDS011;4871;52.004;5.924;2023-09-18T02:42:00;12.30;;;10.90;;
9665;SDS011;4871;52.004;5.924;2023-09-18T02:43:02;12.30;;;10.90;;
9665;SDS011;4871;52.004;5.924;2023-09-18T02:44:00;12.30;;;10.90;;
9665;SDS011;4871;52.004;5.924;2023-09-18T02:45:00;12.30;;;10.90;;
9665;SDS011;4871;52.004;5.924;2023-09-18T02:46:00;12.30;;;10.90;;
9665;SDS011;4871;52.004;5.924;2023-09-18T02:47:00;12.10;;;9.80;;
9665;SDS011;4871;52.004;5.924;2023-09-18T02:48:00;12.10;;;9.80;;
9665;SDS011;4871;52.004;5.924;2023-09-18T02:49:00;12.10;;;9.80;;
9665;SDS011;4871;52.004;5.924;2023-09-18T02:50:00;12.10;;;9.80;;
9665;SDS011;4871;52.004;5.924;2023-09-18T02:51:00;12.10;;;9.80;;
9665;SDS011;4871;52.004;5.924;2023-09-18T02:52:00;12.10;;;9.80;;
9665;SDS011;4871;52.004;5.924;2023-09-18T02:53:00;12.10;;;9.80;;
9665;SDS011;4871;52.004;5.924;2023-09-18T02:54:00;12.10;;;9.80;;
9665;SDS011;4871;52.004;5.924;2023-09-18T02:55:00;12.10;;;9.80;;
9665;SDS011;4871;52.004;5.924;2023-09-18T02:56:00;12.10;;;9.80;;
9665;SDS011;4871;52.004;5.924;2023-09-18T02:57:00;12.10;;;9.80;;
9665;SDS011;4871;52.004;5.924;2023-09-18T02:58:00;12.10;;;9.80;;
9665;SDS011;4871;52.004;5.924;2023-09-18T02:59:00;12.10;;;9.80;;
9665;SDS011;4871;52.004;5.924;2023-09-18T03:00:00;12.10;;;9.80;;
9665;SDS011;4871;52.004;5.924;2023-09-18T03:01:02;12.10;;;9.80;;
9665;SDS011;4871;52.004;5.924;2023-09-18T03:02:01;12.10;;;9.80;;
9665;SDS011;4871;52.004;5.924;2023-09-18T03:03:00;12.10;;;9.80;;
9665;SDS011;4871;52.004;5.924;2023-09-18T03:04:01;12.10;;;9.80;;
9665;SDS011;4871;52.004;5.924;2023-09-18T03:05:00;12.10;;;9.80;;
9665;SDS011;4871;52.004;5.924;2023-09-18T03:06:00;12.10;;;9.80;;
9665;SDS011;4871;52.004;5.924;2023-09-18T03:07:02;12.10;;;9.80;;
9665;SDS011;4871;52.004;5.924;2023-09-18T03:08:00;12.10;;;9.80;;
9665;SDS011;4871;52.004;5.924;2023-09-18T03:09:00;12.10;;;9.80;;
9665;SDS011;4871;52.004;5.924;2023-09-18T03:10:00;12.10;;;9.80;;
9665;SDS011;4871;52.004;5.924;2023-09-18T03:11:00;12.10;;;9.80;;
9665;SDS011;4871;52.004;5.924;2023-09-18T03:12:00;12.10;;;9.80;;
9665;SDS011;4871;52.004;5.924;2023-09-18T03:13:00;12.10;;;9.80;;
9665;SDS011;4871;52.004;5.924;2023-09-18T03:14:00;12.10;;;9.80;;
9665;SDS011;4871;52.004;5.924;2023-09-18T03:15:00;12.10;;;9.80;;
9665;SDS011;4871;52.004;5.924;2023-09-18T03:16:00;12.10;;;9.80;;
9665;SDS011;4871;52.004;5.924;2023-09-18T03:17:01;11.20;;;9.90;;
9665;SDS011;4871;52.004;5.924;2023-09-18T03:18:01;11.20;;;9.90;;
9665;SDS011;4871;52.004;5.924;2023-09-18T03:19:00;11.20;;;9.90;;
9665;SDS011;4871;52.004;5.924;2023-09-18T03:20:00;11.20;;;9.90;;
9665;SDS011;4871;52.004;5.924;2023-09-18T03:21:00;11.20;;;9.90;;
9665;SDS011;4871;52.004;5.924;2023-09-18T03:22:00;11.20;;;9.90;;
9665;SDS011;4871;52.004;5.924;2023-09-18T03:23:01;11.20;;;9.90;;
9665;SDS011;4871;52.004;5.924;2023-09-18T03:24:00;11.20;;;9.90;;
9665;SDS011;4871;52.004;5.924;2023-09-18T03:25:00;11.20;;;9.90;;
9665;SDS011;4871;52.004;5.924;2023-09-18T03:26:00;11.20;;;9.90;;
9665;SDS011;4871;52.004;5.924;2023-09-18T03:27:00;11.20;;;9.90;;
9665;SDS011;4871;52.004;5.924;2023-09-18T03:28:00;11.20;;;9.90;;
9665;SDS011;4871;52.004;5.924;2023-09-18T03:29:00;11.20;;;9.90;;
9665;SDS011;4871;52.004;5.924;2023-09-18T03:30:00;11.20;;;9.90;;
9665;SDS011;4871;52.004;5.924;2023-09-18T03:31:00;11.20;;;9.90;;
9665;SDS011;4871;52.004;5.924;2023-09-18T03:32:00;11.20;;;9.90;;
9665;SDS011;4871;52.004;5.924;2023-09-18T03:33:00;11.20;;;9.90;;
9665;SDS011;4871;52.004;5.924;2023-09-18T03:34:00;11.20;;;9.90;;
9665;SDS011;4871;52.004;5.924;2023-09-18T03:35:00;11.20;;;9.90;;
9665;SDS011;4871;52.004;5.924;2023-09-18T03:36:00;11.20;;;9.90;;
9665;SDS011;4871;52.004;5.924;2023-09-18T03:37:00;11.20;;;9.90;;
9665;SDS011;4871;52.004;5.924;2023-09-18T03:38:00;11.20;;;9.90;;
9665;SDS011;4871;52.004;5.924;2023-09-18T03:39:00;11.20;;;9.90;;
9665;SDS011;4871;52.004;5.924;2023-09-18T03:40:01;11.20;;;9.90;;
9665;SDS011;4871;52.004;5.924;2023-09-18T03:41:01;11.20;;;9.90;;
9665;SDS011;4871;52.004;5.924;2023-09-18T03:42:00;11.20;;;9.90;;
9665;SDS011;4871;52.004;5.924;2023-09-18T03:43:00;11.20;;;9.90;;
9665;SDS011;4871;52.004;5.924;2023-09-18T03:44:01;11.20;;;9.90;;
9665;SDS011;4871;52.004;5.924;2023-09-18T03:45:00;11.20;;;9.90;;
9665;SDS011;4871;52.004;5.924;2023-09-18T03:46:03;11.20;;;9.90;;
9665;SDS011;4871;52.004;5.924;2023-09-18T03:47:00;10.70;;;8.70;;
9665;SDS011;4871;52.004;5.924;2023-09-18T03:48:00;10.70;;;8.70;;
9665;SDS011;4871;52.004;5.924;2023-09-18T03:49:00;10.70;;;8.70;;
9665;SDS011;4871;52.004;5.924;2023-09-18T03:50:00;10.70;;;8.70;;
9665;SDS011;4871;52.004;5.924;2023-09-18T03:51:00;10.70;;;8.70;;
9665;SDS011;4871;52.004;5.924;2023-09-18T03:52:00;10.70;;;8.70;;
9665;SDS011;4871;52.004;5.924;2023-09-18T03:53:00;10.70;;;8.70;;
9665;SDS011;4871;52.004;5.924;2023-09-18T03:54:00;10.70;;;8.70;;
9665;SDS011;4871;52.004;5.924;2023-09-18T03:55:00;10.70;;;8.70;;
9665;SDS011;4871;52.004;5.924;2023-09-18T03:56:00;10.70;;;8.70;;
9665;SDS011;4871;52.004;5.924;2023-09-18T03:57:00;10.70;;;8.70;;
9665;SDS011;4871;52.004;5.924;2023-09-18T03:58:00;10.70;;;8.70;;
9665;SDS011;4871;52.004;5.924;2023-09-18T03:59:01;10.70;;;8.70;;
9665;SDS011;4871;52.004;5.924;2023-09-18T04:00:00;10.70;;;8.70;;
9665;SDS011;4871;52.004;5.924;2023-09-18T04:01:00;10.70;;;8.70;;
9665;SDS011;4871;52.004;5.924;2023-09-18T04:02:00;10.70;;;8.70;;
9665;SDS011;4871;52.004;5.924;2023-09-18T04:03:00;10.70;;;8.70;;
9665;SDS011;4871;52.004;5.924;2023-09-18T04:04:00;10.70;;;8.70;;
9665;SDS011;4871;52.004;5.924;2023-09-18T04:05:00;10.70;;;8.70;;
9665;SDS011;4871;52.004;5.924;2023-09-18T04:06:00;10.70;;;8.70;;
9665;SDS011;4871;52.004;5.924;2023-09-18T04:07:00;10.70;;;8.70;;
9665;SDS011;4871;52.004;5.924;2023-09-18T04:08:00;10.70;;;8.70;;
9665;SDS011;4871;52.004;5.924;2023-09-18T04:09:01;10.70;;;8.70;;
9665;SDS011;4871;52.004;5.924;2023-09-18T04:10:00;10.70;;;8.70;;
9665;SDS011;4871;52.004;5.924;2023-09-18T04:11:00;10.70;;;8.70;;
9665;SDS011;4871;52.004;5.924;2023-09-18T04:12:00;10.70;;;8.70;;
9665;SDS011;4871;52.004;5.924;2023-09-18T04:13:00;10.70;;;8.70;;
9665;SDS011;4871;52.004;5.924;2023-09-18T04:14:00;10.70;;;8.70;;
9665;SDS011;4871;52.004;5.924;2023-09-18T04:15:00;10.70;;;8.70;;
9665;SDS011;4871;52.004;5.924;2023-09-18T04:16:00;10.70;;;8.70;;
9665;SDS011;4871;52.004;5.924;2023-09-18T04:17:00;9.00;;;8.20;;
9665;SDS011;4871;52.004;5.924;2023-09-18T04:18:00;9.00;;;8.20;;
9665;SDS011;4871;52.004;5.924;2023-09-18T04:19:00;9.00;;;8.20;;
9665;SDS011;4871;52.004;5.924;2023-09-18T04:20:00;9.00;;;8.20;;
9665;SDS011;4871;52.004;5.924;2023-09-18T04:21:00;9.00;;;8.20;;
9665;SDS011;4871;52.004;5.924;2023-09-18T04:22:00;9.00;;;8.20;;
9665;SDS011;4871;52.004;5.924;2023-09-18T04:23:16;9.00;;;8.20;;
9665;SDS011;4871;52.004;5.924;2023-09-18T04:24:00;9.00;;;8.20;;
9665;SDS011;4871;52.004;5.924;2023-09-18T04:25:00;9.00;;;8.20;;
9665;SDS011;4871;52.004;5.924;2023-09-18T04:26:01;9.00;;;8.20;;
9665;SDS011;4871;52.004;5.924;2023-09-18T04:27:00;9.00;;;8.20;;
9665;SDS011;4871;52.004;5.924;2023-09-18T04:28:00;9.00;;;8.20;;
9665;SDS011;4871;52.004;5.924;2023-09-18T04:29:00;9.00;;;8.20;;
9665;SDS011;4871;52.004;5.924;2023-09-18T04:30:00;9.00;;;8.20;;
9665;SDS011;4871;52.004;5.924;2023-09-18T04:31:00;9.00;;;8.20;;
9665;SDS011;4871;52.004;5.924;2023-09-18T04:32:00;9.00;;;8.20;;
9665;SDS011;4871;52.004;5.924;2023-09-18T04:33:01;9.00;;;8.20;;
9665;SDS011;4871;52.004;5.924;2023-09-18T04:34:00;9.00;;;8.20;;
9665;SDS011;4871;52.004;5.924;2023-09-18T04:35:00;9.00;;;8.20;;
9665;SDS011;4871;52.004;5.924;2023-09-18T04:36:00;9.00;;;8.20;;
9665;SDS011;4871;52.004;5.924;2023-09-18T04:37:00;9.00;;;8.20;;
9665;SDS011;4871;52.004;5.924;2023-09-18T04:38:00;9.00;;;8.20;;
9665;SDS011;4871;52.004;5.924;2023-09-18T04:39:00;9.00;;;8.20;;
9665;SDS011;4871;52.004;5.924;2023-09-18T04:40:00;9.00;;;8.20;;
9665;SDS011;4871;52.004;5.924;2023-09-18T04:41:00;9.00;;;8.20;;
9665;SDS011;4871;52.004;5.924;2023-09-18T04:42:01;9.00;;;8.20;;
9665;SDS011;4871;52.004;5.924;2023-09-18T04:43:00;9.00;;;8.20;;
9665;SDS011;4871;52.004;5.924;2023-09-18T04:44:00;9.00;;;8.20;;
9665;SDS011;4871;52.004;5.924;2023-09-18T04:45:00;9.00;;;8.20;;
9665;SDS011;4871;52.004;5.924;2023-09-18T04:46:00;9.00;;;8.20;;
9665;SDS011;4871;52.004;5.924;2023-09-18T04:47:00;9.40;;;8.30;;
9665;SDS011;4871;52.004;5.924;2023-09-18T04:48:00;9.40;;;8.30;;
9665;SDS011;4871;52.004;5.924;2023-09-18T04:49:00;9.40;;;8.30;;
9665;SDS011;4871;52.004;5.924;2023-09-18T04:50:00;9.40;;;8.30;;
9665;SDS011;4871;52.004;5.924;2023-09-18T04:51:00;9.40;;;8.30;;
9665;SDS011;4871;52.004;5.924;2023-09-18T04:52:00;9.40;;;8.30;;
9665;SDS011;4871;52.004;5.924;2023-09-18T04:53:00;9.40;;;8.30;;
9665;SDS011;4871;52.004;5.924;2023-09-18T04:54:00;9.40;;;8.30;;
9665;SDS011;4871;52.004;5.924;2023-09-18T04:55:00;9.40;;;8.30;;
9665;SDS011;4871;52.004;5.924;2023-09-18T04:56:00;9.40;;;8.30;;
9665;SDS011;4871;52.004;5.924;2023-09-18T04:57:00;9.40;;;8.30;;
9665;SDS011;4871;52.004;5.924;2023-09-18T04:58:00;9.40;;;8.30;;
9665;SDS011;4871;52.004;5.924;2023-09-18T04:59:00;9.40;;;8.30;;
9665;SDS011;4871;52.004;5.924;2023-09-18T05:00:00;9.40;;;8.30;;
9665;SDS011;4871;52.004;5.924;2023-09-18T05:01:01;9.40;;;8.30;;
9665;SDS011;4871;52.004;5.924;2023-09-18T05:02:00;9.40;;;8.30;;
9665;SDS011;4871;52.004;5.924;2023-09-18T05:03:01;9.40;;;8.30;;
9665;SDS011;4871;52.004;5.924;2023-09-18T05:04:00;9.40;;;8.30;;
9665;SDS011;4871;52.004;5.924;2023-09-18T05:05:00;9.40;;;8.30;;
9665;SDS011;4871;52.004;5.924;2023-09-18T05:06:00;9.40;;;8.30;;
9665;SDS011;4871;52.004;5.924;2023-09-18T05:07:02;9.40;;;8.30;;
9665;SDS011;4871;52.004;5.924;2023-09-18T05:08:01;9.40;;;8.30;;
9665;SDS011;4871;52.004;5.924;2023-09-18T05:09:00;9.40;;;8.30;;
9665;SDS011;4871;52.004;5.924;2023-09-18T05:10:00;9.40;;;8.30;;
9665;SDS011;4871;52.004;5.924;2023-09-18T05:11:00;9.40;;;8.30;;
9665;SDS011;4871;52.004;5.924;2023-09-18T05:12:00;9.40;;;8.30;;
9665;SDS011;4871;52.004;5.924;2023-09-18T05:13:00;9.40;;;8.30;;
9665;SDS011;4871;52.004;5.924;2023-09-18T05:14:00;9.40;;;8.30;;
9665;SDS011;4871;52.004;5.924;2023-09-18T05:15:00;9.40;;;8.30;;
9665;SDS011;4871;52.004;5.924;2023-09-18T05:16:00;9.40;;;8.30;;
9665;SDS011;4871;52.004;5.924;2023-09-18T05:17:00;7.90;;;7.10;;
9665;SDS011;4871;52.004;5.924;2023-09-18T05:18:00;7.90;;;7.10;;
9665;SDS011;4871;52.004;5.924;2023-09-18T05:19:00;7.90;;;7.10;;
9665;SDS011;4871;52.004;5.924;2023-09-18T05:20:01;7.90;;;7.10;;
9665;SDS011;4871;52.004;5.924;2023-09-18T05:21:01;7.90;;;7.10;;
9665;SDS011;4871;52.004;5.924;2023-09-18T05:22:00;7.90;;;7.10;;
9665;SDS011;4871;52.004;5.924;2023-09-18T05:23:01;7.90;;;7.10;;
9665;SDS011;4871;52.004;5.924;2023-09-18T05:24:00;7.90;;;7.10;;
9665;SDS011;4871;52.004;5.924;2023-09-18T05:25:01;7.90;;;7.10;;
9665;SDS011;4871;52.004;5.924;2023-09-18T05:26:00;7.90;;;7.10;;
9665;SDS011;4871;52.004;5.924;2023-09-18T05:27:00;7.90;;;7.10;;
9665;SDS011;4871;52.004;5.924;2023-09-18T05:28:00;7.90;;;7.10;;
9665;SDS011;4871;52.004;5.924;2023-09-18T05:29:00;7.90;;;7.10;;
9665;SDS011;4871;52.004;5.924;2023-09-18T05:30:00;7.90;;;7.10;;
9665;SDS011;4871;52.004;5.924;2023-09-18T05:31:00;7.90;;;7.10;;
9665;SDS011;4871;52.004;5.924;2023-09-18T05:32:00;7.90;;;7.10;;
9665;SDS011;4871;52.004;5.924;2023-09-18T05:33:08;7.90;;;7.10;;
9665;SDS011;4871;52.004;5.924;2023-09-18T05:34:00;7.90;;;7.10;;
9665;SDS011;4871;52.004;5.924;2023-09-18T05:35:05;7.90;;;7.10;;
9665;SDS011;4871;52.004;5.924;2023-09-18T05:36:00;7.90;;;7.10;;
9665;SDS011;4871;52.004;5.924;2023-09-18T05:37:00;7.90;;;7.10;;
9665;SDS011;4871;52.004;5.924;2023-09-18T05:38:00;7.90;;;7.10;;
9665;SDS011;4871;52.004;5.924;2023-09-18T05:39:00;7.90;;;7.10;;
9665;SDS011;4871;52.004;5.924;2023-09-18T05:40:00;7.90;;;7.10;;
9665;SDS011;4871;52.004;5.924;2023-09-18T05:41:00;7.90;;;7.10;;
9665;SDS011;4871;52.004;5.924;2023-09-18T05:42:00;7.90;;;7.10;;
9665;SDS011;4871;52.004;5.924;2023-09-18T05:43:00;7.90;;;7.10;;
9665;SDS011;4871;52.004;5.924;2023-09-18T05:44:03;7.90;;;7.10;;
9665;SDS011;4871;52.004;5.924;2023-09-18T05:45:00;7.90;;;7.10;;
9665;SDS011;4871;52.004;5.924;2023-09-18T05:46:00;7.90;;;7.10;;
9665;SDS011;4871;52.004;5.924;2023-09-18T05:47:04;9.10;;;7.10;;
9665;SDS011;4871;52.004;5.924;2023-09-18T05:48:04;9.10;;;7.10;;
9665;SDS011;4871;52.004;5.924;2023-09-18T05:49:00;9.10;;;7.10;;
9665;SDS011;4871;52.004;5.924;2023-09-18T05:50:00;9.10;;;7.10;;
9665;SDS011;4871;52.004;5.924;2023-09-18T05:51:00;9.10;;;7.10;;
9665;SDS011;4871;52.004;5.924;2023-09-18T05:52:00;9.10;;;7.10;;
9665;SDS011;4871;52.004;5.924;2023-09-18T05:53:03;9.10;;;7.10;;
9665;SDS011;4871;52.004;5.924;2023-09-18T05:54:00;9.10;;;7.10;;
9665;SDS011;4871;52.004;5.924;2023-09-18T05:55:00;9.10;;;7.10;;
9665;SDS011;4871;52.004;5.924;2023-09-18T05:56:04;9.10;;;7.10;;
9665;SDS011;4871;52.004;5.924;2023-09-18T05:57:02;9.10;;;7.10;;
9665;SDS011;4871;52.004;5.924;2023-09-18T05:58:00;9.10;;;7.10;;
9665;SDS011;4871;52.004;5.924;2023-09-18T05:59:00;9.10;;;7.10;;
9665;SDS011;4871;52.004;5.924;2023-09-18T06:00:00;9.10;;;7.10;;
9665;SDS011;4871;52.004;5.924;2023-09-18T06:01:00;9.10;;;7.10;;
9665;SDS011;4871;52.004;5.924;2023-09-18T06:02:00;9.10;;;7.10;;
9665;SDS011;4871;52.004;5.924;2023-09-18T06:03:00;9.10;;;7.10;;
9665;SDS011;4871;52.004;5.924;2023-09-18T06:04:03;9.10;;;7.10;;
9665;SDS011;4871;52.004;5.924;2023-09-18T06:05:00;9.10;;;7.10;;
9665;SDS011;4871;52.004;5.924;2023-09-18T06:06:01;9.10;;;7.10;;
9665;SDS011;4871;52.004;5.924;2023-09-18T06:07:00;9.10;;;7.10;;
9665;SDS011;4871;52.004;5.924;2023-09-18T06:08:00;9.10;;;7.10;;
9665;SDS011;4871;52.004;5.924;2023-09-18T06:09:00;9.10;;;7.10;;